Abbott, New Mexico
Current Conditions -  °F | °C
As of 10:53 AM on Monday 24 Nov 2014 (Local Time) from KRTN Reporting Station
Clear Clear  
Wind Chill: 33°   Ceiling: Unl
Heat Index: 33°   Visibility: 10mi
Dew Point: 10°   Wind: 3mph
Humidity: 38%   Direction: 160°SSE
Pressure: 29.98"   Gusts: NA
Location:  36.3883°N, 104.381°W
Report Text: KRTN 241753Z AUTO 16003KT 10SM CLR 01/M12 A2998 RMK AO2 SLP162 T00061122 10006 21106 58003
Loading
Personal Weather Stations






























Interactive Weather Map New forecast layout! Learn more

10-Day Weather Forecast

Advertisements
Track Severe Weather on mobile